Sveva — IBEU — position and weather

sailwx.info

Track history (hours):
 
Tides and Currents Weather Stations Pressure Air Temp Water Temp Dewpoint Dewpoint Depression Visibility Wind Speed Wind Dir Waves Ship Positions

Sveva

Last reported at 2016-Jun-27 07:33 UTC. Time now 2016-Jun-27 13:16 UTC.
Position N 29°16' W 094°30'.

Length 136 m; draft 8.8 m.

Type: Ship (hazmat cat B). MMSI: 247359000.

Date/timePositionNaut miles runAvg speedWind from/ knotsBaromVisibWave heightAir tempDewpointWater temp
2016-Jun-27 07:33N 29°16' W 094°30'0 0.0
2016-Jun-27 06:33N 29°16' W 094°30'238 6.1
2016-Jun-25 15:22N 29°39' W 089°57'1011.9
2016-Jun-25 14:33N 29°48' W 090°00'8 8.1
2016-Jun-25 13:33N 29°55' W 089°56'10 9.7
2016-Jun-25 12:33N 29°54' W 090°07'4 0.1
2016-Jun-23 17:33N 29°56' W 090°11'6 6.4
2016-Jun-23 16:33N 29°56' W 090°04'8 7.3
2016-Jun-23 15:30N 29°55' W 089°55'6 6.9
2016-Jun-23 14:33N 29°50' W 089°60'  
2016-Jun-19 04:23N 29°14' W 094°36'0 0.0
2016-Jun-19 03:08N 29°14' W 094°36'0 0.1
2016-Jun-19 02:32N 29°14' W 094°36'0 0.1
2016-Jun-19 01:33N 29°13' W 094°36'1 0.1
2016-Jun-18 15:28N 29°14' W 094°36'0 0.0
2016-Jun-18 14:25N 29°14' W 094°36'0 0.0
2016-Jun-18 13:24N 29°14' W 094°36'0 0.0
2016-Jun-18 12:21N 29°14' W 094°36'0 0.0
2016-Jun-18 11:25N 29°14' W 094°36'0 0.0
2016-Jun-18 09:32N 29°14' W 094°36'0 0.0
2016-Jun-18 08:28N 29°14' W 094°36'0 0.0
2016-Jun-18 07:31N 29°14' W 094°36'14 4.6
2016-Jun-18 04:33N 29°23' W 094°48'1212.3
2016-Jun-18 03:33N 29°33' W 094°55'1111.2
2016-Jun-18 02:33N 29°43' W 095°01'4 0.7
2016-Jun-17 20:31N 29°45' W 095°06'0 0.0
2016-Jun-17 08:31N 29°45' W 095°06'5 5.7
2016-Jun-17 07:33N 29°44' W 095°12'  
Track history (hours):
 
Tides and Currents Weather Stations Pressure Air Temp Water Temp Dewpoint Dewpoint Depression Visibility Wind Speed Wind Dir Waves Ship Positions

Sveva

Last reported at 2016-Jun-27 07:33 UTC. Time now 2016-Jun-27 13:16 UTC.
Position N 29°16' W 094°30'.

Length 136 m; draft 8.8 m.

Type: Ship (hazmat cat B). MMSI: 247359000.

Date/timePositionNaut miles runAvg speedWind from/ knotsBaromVisibWave heightAir tempDewpointWater temp
2016-Jun-27 07:33N 29°16' W 094°30'0 0.0
2016-Jun-27 06:33N 29°16' W 094°30'238 6.1
2016-Jun-25 15:22N 29°39' W 089°57'1011.9
2016-Jun-25 14:33N 29°48' W 090°00'8 8.1
2016-Jun-25 13:33N 29°55' W 089°56'10 9.7
2016-Jun-25 12:33N 29°54' W 090°07'4 0.1
2016-Jun-23 17:33N 29°56' W 090°11'6 6.4
2016-Jun-23 16:33N 29°56' W 090°04'8 7.3
2016-Jun-23 15:30N 29°55' W 089°55'6 6.9
2016-Jun-23 14:33N 29°50' W 089°60'  
2016-Jun-19 04:23N 29°14' W 094°36'0 0.0
2016-Jun-19 03:08N 29°14' W 094°36'0 0.1
2016-Jun-19 02:32N 29°14' W 094°36'0 0.1
2016-Jun-19 01:33N 29°13' W 094°36'1 0.1
2016-Jun-18 15:28N 29°14' W 094°36'0 0.0
2016-Jun-18 14:25N 29°14' W 094°36'0 0.0
2016-Jun-18 13:24N 29°14' W 094°36'0 0.0
2016-Jun-18 12:21N 29°14' W 094°36'0 0.0
2016-Jun-18 11:25N 29°14' W 094°36'0 0.0
2016-Jun-18 09:32N 29°14' W 094°36'0 0.0
2016-Jun-18 08:28N 29°14' W 094°36'0 0.0
2016-Jun-18 07:31N 29°14' W 094°36'14 4.6
2016-Jun-18 04:33N 29°23' W 094°48'1212.3
2016-Jun-18 03:33N 29°33' W 094°55'1111.2
2016-Jun-18 02:33N 29°43' W 095°01'4 0.7
2016-Jun-17 20:31N 29°45' W 095°06'0 0.0
2016-Jun-17 08:31N 29°45' W 095°06'5 5.7
2016-Jun-17 07:33N 29°44' W 095°12'  

Dump ship's entire track history